createdAt,value
2024-03-14T07:46:56.388Z,22.72
2024-03-14T07:47:08.106Z,22.75
2024-03-14T07:47:19.683Z,22.80
2024-03-14T07:47:30.985Z,22.82
2024-03-14T07:47:42.595Z,22.84
2024-03-14T07:47:54.615Z,22.84
2024-03-14T07:48:04.035Z,22.85
2024-03-14T07:48:15.673Z,22.87
2024-03-14T07:48:27.008Z,22.88
2024-03-14T07:48:38.662Z,22.89
2024-03-14T07:48:49.936Z,22.90
2024-03-14T07:49:01.494Z,22.92
2024-03-14T07:49:12.765Z,22.92
2024-03-14T07:49:24.279Z,22.94
2024-03-14T07:49:35.576Z,22.94
2024-03-14T07:49:47.072Z,22.95
2024-03-14T07:49:58.329Z,22.96
2024-03-14T07:50:09.856Z,22.97
2024-03-14T07:50:21.131Z,22.97
2024-03-14T07:50:32.654Z,22.98
2024-03-14T07:50:43.910Z,22.98
2024-03-14T07:50:55.485Z,22.98
2024-03-14T07:51:06.785Z,22.98
2024-03-14T07:51:18.317Z,23.00
2024-03-14T07:51:29.680Z,23.00
2024-03-14T07:51:41.190Z,23.01
2024-03-14T07:51:52.453Z,23.00
2024-03-14T07:52:03.970Z,23.01
2024-03-14T07:52:15.224Z,23.02
2024-03-14T07:52:26.754Z,23.03
2024-03-14T07:52:38.039Z,23.02
2024-03-14T07:52:49.562Z,23.03
2024-03-14T07:53:00.823Z,23.03
2024-03-14T07:53:12.351Z,23.03
2024-03-14T07:53:23.623Z,23.03
2024-03-14T07:53:35.127Z,23.04
2024-03-14T07:53:46.387Z,23.04
2024-03-14T07:53:57.982Z,23.05
2024-03-14T07:54:09.242Z,23.05
2024-03-14T07:54:20.801Z,23.05
2024-03-14T07:54:32.202Z,23.06
2024-03-14T07:54:43.835Z,23.06
2024-03-14T07:54:55.103Z,23.05
2024-03-14T07:55:07.485Z,23.07
2024-03-14T07:55:16.641Z,23.08
2024-03-14T07:55:28.213Z,23.07
2024-03-14T07:55:39.470Z,23.07
2024-03-14T07:55:50.986Z,23.08
2024-03-14T07:56:02.257Z,23.08
2024-03-14T07:56:13.739Z,23.08
2024-03-14T07:56:25.010Z,23.09
2024-03-14T07:56:36.529Z,23.08
2024-03-14T07:56:48.037Z,23.08
2024-03-14T07:56:59.684Z,23.08
2024-03-14T07:57:10.944Z,23.09
2024-03-14T07:57:22.603Z,23.09
2024-03-14T07:57:34.012Z,23.09
2024-03-14T07:57:45.565Z,23.09
2024-03-14T07:57:56.848Z,23.09
2024-03-14T07:58:08.363Z,23.10
2024-03-14T07:58:19.650Z,23.09
2024-03-14T07:58:31.142Z,23.09
2024-03-14T07:58:42.427Z,23.10
2024-03-14T07:58:53.961Z,23.10
2024-03-14T07:59:05.218Z,23.10
2024-03-14T07:59:16.751Z,23.10
2024-03-14T07:59:29.939Z,23.11
2024-03-14T07:59:39.260Z,23.10
2024-03-14T07:59:50.832Z,23.10
2024-03-14T08:00:02.115Z,23.10
